createdAt,value
2018-04-11T00:02:32.654Z,4.00
2018-04-11T00:05:37.079Z,3.23
2018-04-11T00:08:41.524Z,3.10
2018-04-11T00:11:45.974Z,2.80
2018-04-11T00:14:50.424Z,3.27
2018-04-11T00:17:54.874Z,2.90
2018-04-11T00:20:59.308Z,2.70
2018-04-11T00:24:03.806Z,3.30
2018-04-11T00:27:08.296Z,3.00
2018-04-11T00:30:12.757Z,3.10
2018-04-11T00:33:17.943Z,3.27
2018-04-11T00:36:22.363Z,3.00
2018-04-11T00:39:26.922Z,2.70
2018-04-11T00:42:31.390Z,2.40
2018-04-11T00:45:35.820Z,2.50
2018-04-11T00:48:40.275Z,2.63
2018-04-11T00:51:44.707Z,2.57
2018-04-11T00:54:49.171Z,3.73
2018-04-11T00:57:53.655Z,4.37
2018-04-11T01:00:58.098Z,3.43
2018-04-11T01:04:03.681Z,3.63
2018-04-11T01:07:09.434Z,3.20
2018-04-11T01:10:13.915Z,2.87
2018-04-11T01:13:18.374Z,3.47
2018-04-11T01:16:22.820Z,3.17
2018-04-11T01:19:28.066Z,3.27
2018-04-11T01:22:32.535Z,3.00
2018-04-11T01:25:36.960Z,3.27
2018-04-11T01:28:42.151Z,3.10
2018-04-11T01:31:46.690Z,2.83
2018-04-11T01:34:51.159Z,2.87
2018-04-11T01:37:55.601Z,2.70
2018-04-11T01:41:01.004Z,3.03
2018-04-11T01:44:05.482Z,2.60
2018-04-11T01:47:11.506Z,3.23
2018-04-11T01:50:16.035Z,3.40
2018-04-11T01:53:20.503Z,3.03
2018-04-11T01:56:24.989Z,3.00
2018-04-11T01:59:29.610Z,3.00
2018-04-11T02:02:34.238Z,3.10
2018-04-11T02:05:38.658Z,2.83
2018-04-11T02:08:43.934Z,2.80
2018-04-11T02:11:48.368Z,3.33
2018-04-11T02:14:52.842Z,2.63
2018-04-11T02:17:57.291Z,2.90
2018-04-11T02:21:01.807Z,3.03
2018-04-11T02:24:06.254Z,3.23
2018-04-11T02:27:10.770Z,3.40
2018-04-11T02:30:15.238Z,3.17
2018-04-11T02:33:19.699Z,3.40
2018-04-11T02:36:24.134Z,3.10
2018-04-11T02:39:28.576Z,3.17
2018-04-11T02:42:33.086Z,2.93
2018-04-11T02:45:37.527Z,2.80
2018-04-11T02:48:42.010Z,4.03
2018-04-11T02:51:46.497Z,3.53
2018-04-11T02:54:51.027Z,3.63
2018-04-11T02:57:55.453Z,3.03
2018-04-11T03:01:00.424Z,3.30
2018-04-11T03:04:04.867Z,3.30
2018-04-11T03:07:09.288Z,3.50
2018-04-11T03:10:13.746Z,3.37
2018-04-11T03:13:18.188Z,3.03
2018-04-11T03:16:22.617Z,3.30
2018-04-11T03:19:27.143Z,3.53
2018-04-11T03:22:32.332Z,3.23
2018-04-11T03:25:36.844Z,3.30
2018-04-11T03:28:42.042Z,2.90
2018-04-11T03:31:46.460Z,3.00
2018-04-11T03:34:50.910Z,3.37
2018-04-11T03:37:55.339Z,3.53
2018-04-11T03:40:59.814Z,3.60
2018-04-11T03:44:04.264Z,2.93
2018-04-11T03:47:09.432Z,3.30
2018-04-11T03:50:14.634Z,3.57
2018-04-11T03:53:19.060Z,3.50
2018-04-11T03:56:23.563Z,3.97
2018-04-11T03:59:28.794Z,4.50
2018-04-11T04:02:33.259Z,4.10
2018-04-11T04:05:38.442Z,4.13
2018-04-11T04:08:43.630Z,3.70
2018-04-11T04:11:48.038Z,3.40
2018-04-11T04:15:17.039Z,4.60
2018-04-11T04:18:45.418Z,4.97
2018-04-11T04:21:49.867Z,5.20
2018-04-11T04:24:54.339Z,4.67
2018-04-11T04:27:59.517Z,4.20
2018-04-11T04:31:03.969Z,11.67
2018-04-11T04:34:08.388Z,9.87
2018-04-11T04:37:12.829Z,12.17
2018-04-11T04:40:17.266Z,13.40
2018-04-11T04:43:21.693Z,17.50
2018-04-11T04:46:26.951Z,18.17
2018-04-11T04:49:32.143Z,18.77
2018-04-11T04:52:36.571Z,20.77
2018-04-11T04:55:41.040Z,22.77
2018-04-11T04:58:45.471Z,24.43
2018-04-11T05:01:49.911Z,27.67
2018-04-11T05:04:54.364Z,32.70
2018-04-11T05:07:58.877Z,45.10
2018-04-11T05:11:03.332Z,45.80
2018-04-11T05:14:07.773Z,43.17
2018-04-11T05:17:12.231Z,55.07
2018-04-11T05:20:16.677Z,50.97
2018-04-11T05:23:21.105Z,57.07
2018-04-11T05:26:25.562Z,82.87
2018-04-11T05:29:31.484Z,105.30
2018-04-11T05:32:35.939Z,120.97
2018-04-11T05:35:40.387Z,129.10
2018-04-11T05:38:44.812Z,156.20
2018-04-11T05:41:49.263Z,124.10
2018-04-11T05:44:53.726Z,116.30
2018-04-11T05:47:58.192Z,131.17
2018-04-11T05:51:02.654Z,149.20
2018-04-11T05:54:07.085Z,155.87
2018-04-11T05:57:12.317Z,165.53
2018-04-11T06:00:16.775Z,180.73
2018-04-11T06:03:21.951Z,188.30
2018-04-11T06:06:26.402Z,187.20
2018-04-11T06:09:30.836Z,192.43
2018-04-11T06:12:35.287Z,193.13
2018-04-11T06:15:39.749Z,193.77
2018-04-11T06:18:44.186Z,188.87
2018-04-11T06:21:48.642Z,191.67
2018-04-11T06:24:53.805Z,187.13
2018-04-11T06:27:58.321Z,193.33
2018-04-11T06:31:02.762Z,192.67
2018-04-11T06:34:07.371Z,195.53
2018-04-11T06:37:11.831Z,195.17
2018-04-11T06:40:16.250Z,191.47
2018-04-11T06:43:20.708Z,190.23
2018-04-11T06:46:25.166Z,204.77
2018-04-11T06:49:29.610Z,198.30
2018-04-11T06:52:34.092Z,199.63
2018-04-11T06:55:38.540Z,193.03
2018-04-11T06:58:42.970Z,190.97
2018-04-11T07:01:47.441Z,189.17
2018-04-11T07:04:51.882Z,188.97
2018-04-11T07:07:56.346Z,185.83
2018-04-11T07:11:00.808Z,185.30
2018-04-11T07:14:05.986Z,181.97
2018-04-11T07:17:10.445Z,185.23
2018-04-11T07:20:14.866Z,181.87
2018-04-11T07:23:19.330Z,175.43
2018-04-11T07:26:23.787Z,173.27
2018-04-11T07:29:28.231Z,171.20
2018-04-11T07:32:32.693Z,172.87
2018-04-11T07:35:37.871Z,163.93
2018-04-11T07:38:43.073Z,163.50
2018-04-11T07:41:47.571Z,163.07
2018-04-11T07:44:52.000Z,157.20
2018-04-11T07:47:57.220Z,158.30
2018-04-11T07:51:01.675Z,158.93
2018-04-11T07:54:06.111Z,155.13
2018-04-11T07:57:10.570Z,150.20
2018-04-11T08:00:15.004Z,147.57
2018-04-11T08:03:19.487Z,147.30
2018-04-11T08:06:23.944Z,145.37
2018-04-11T08:09:28.416Z,142.93
2018-04-11T08:12:32.926Z,140.90
2018-04-11T08:15:37.447Z,140.03
2018-04-11T08:18:41.907Z,136.37
2018-04-11T08:21:46.351Z,139.83
2018-04-11T08:24:50.777Z,136.73
2018-04-11T08:27:55.239Z,131.60
2018-04-11T08:30:59.740Z,132.10
2018-04-11T08:34:04.209Z,129.40
2018-04-11T08:37:08.668Z,128.33
2018-04-11T08:40:13.097Z,126.43
2018-04-11T08:43:17.539Z,125.80
2018-04-11T08:46:21.974Z,125.93
2018-04-11T08:49:26.436Z,125.10
2018-04-11T08:52:30.911Z,123.37
2018-04-11T08:55:35.449Z,123.77
2018-04-11T08:58:39.904Z,120.63
2018-04-11T09:01:44.365Z,118.23
2018-04-11T09:04:48.795Z,118.37
2018-04-11T09:07:53.293Z,116.53
2018-04-11T09:10:58.519Z,113.57
2018-04-11T09:14:03.030Z,114.03
2018-04-11T09:17:07.488Z,113.97
2018-04-11T09:20:12.129Z,110.63
2018-04-11T09:23:16.590Z,111.53
2018-04-11T09:26:21.074Z,108.90
2018-04-11T09:29:25.542Z,108.80
2018-04-11T09:32:30.051Z,108.53
2018-04-11T09:35:34.501Z,104.50
2018-04-11T09:38:38.952Z,104.30
2018-04-11T09:41:43.402Z,103.30
2018-04-11T09:44:47.858Z,102.97
2018-04-11T09:47:52.326Z,98.43
2018-04-11T09:50:56.796Z,97.33
2018-04-11T09:54:01.239Z,97.43
2018-04-11T09:57:05.687Z,96.17
2018-04-11T10:00:10.110Z,95.40
2018-04-11T10:03:14.571Z,92.87
2018-04-11T10:06:19.004Z,92.37
2018-04-11T10:09:23.546Z,89.03
2018-04-11T10:12:27.992Z,88.80
2018-04-11T10:15:32.790Z,90.57
2018-04-11T10:18:37.237Z,87.83
2018-04-11T10:21:41.658Z,85.13
2018-04-11T10:24:46.117Z,85.87
2018-04-11T10:27:50.591Z,83.27
2018-04-11T10:30:55.017Z,84.30
2018-04-11T10:34:00.205Z,84.17
2018-04-11T10:37:04.641Z,83.73
2018-04-11T10:40:09.091Z,82.57
2018-04-11T10:43:13.538Z,79.10
2018-04-11T10:46:17.961Z,78.43
2018-04-11T10:49:22.397Z,77.07
2018-04-11T10:52:26.813Z,77.17
2018-04-11T10:55:31.259Z,74.90
2018-04-11T10:58:35.704Z,74.83
2018-04-11T11:01:40.119Z,73.07
2018-04-11T11:04:45.315Z,73.83
2018-04-11T11:07:49.755Z,73.23
2018-04-11T11:10:54.190Z,71.97
2018-04-11T11:13:58.705Z,71.63
2018-04-11T11:17:03.125Z,70.50
2018-04-11T11:20:08.310Z,68.80
2018-04-11T11:23:12.774Z,67.40
2018-04-11T11:26:17.199Z,66.47
2018-04-11T11:29:21.654Z,65.20
2018-04-11T11:32:26.075Z,64.57
2018-04-11T11:35:30.513Z,63.20
2018-04-11T11:38:34.961Z,63.07
2018-04-11T11:41:39.385Z,61.13
2018-04-11T11:44:43.836Z,61.30
2018-04-11T11:47:48.249Z,58.83
2018-04-11T11:50:52.701Z,61.17
2018-04-11T11:53:57.151Z,59.87
2018-04-11T11:57:01.583Z,59.10
2018-04-11T12:00:06.031Z,58.03
2018-04-11T12:03:10.475Z,56.83
2018-04-11T12:06:14.897Z,54.80
2018-04-11T12:09:19.341Z,55.37
2018-04-11T12:12:23.774Z,56.10
2018-04-11T12:15:28.215Z,54.33
2018-04-11T12:18:32.663Z,52.43
2018-04-11T12:21:37.078Z,51.97
2018-04-11T12:24:41.523Z,52.93
2018-04-11T12:27:45.954Z,52.30
2018-04-11T12:30:50.413Z,50.73
2018-04-11T12:33:54.899Z,51.43
2018-04-11T12:37:00.083Z,51.50
2018-04-11T12:40:05.270Z,48.47
2018-04-11T12:43:09.702Z,48.60
2018-04-11T12:46:14.141Z,48.13
2018-04-11T12:49:18.672Z,48.07
2018-04-11T12:52:23.045Z,44.67
2018-04-11T12:55:27.511Z,46.90
2018-04-11T12:58:31.990Z,45.33
2018-04-11T13:01:36.450Z,46.60
2018-04-11T13:04:40.890Z,46.30
2018-04-11T13:07:45.306Z,45.13
2018-04-11T13:10:49.763Z,42.87
2018-04-11T13:13:54.207Z,43.00
2018-04-11T13:16:58.679Z,42.57
2018-04-11T13:20:03.142Z,43.13
2018-04-11T13:23:07.574Z,41.37
2018-04-11T13:26:12.029Z,41.30
2018-04-11T13:29:17.967Z,40.97
2018-04-11T13:32:23.122Z,40.40
2018-04-11T13:35:28.305Z,40.13
2018-04-11T13:38:32.735Z,39.70
2018-04-11T13:41:37.173Z,39.63
2018-04-11T13:44:41.617Z,39.00
2018-04-11T13:47:46.034Z,38.43
2018-04-11T13:50:51.232Z,37.33
2018-04-11T13:53:55.658Z,36.23
2018-04-11T13:57:01.162Z,35.53
2018-04-11T14:00:05.624Z,36.60
2018-04-11T14:03:10.055Z,36.20
2018-04-11T14:06:14.508Z,36.27
2018-04-11T14:09:18.985Z,34.30
2018-04-11T14:12:23.403Z,34.07
2018-04-11T14:15:28.595Z,34.23
2018-04-11T14:18:33.019Z,33.80
2018-04-11T14:21:37.458Z,32.93
2018-04-11T14:24:41.908Z,33.57
2018-04-11T14:27:46.330Z,32.63
2018-04-11T14:30:50.816Z,32.73
2018-04-11T14:33:55.233Z,31.93
2018-04-11T14:36:59.702Z,32.00
2018-04-11T14:40:04.153Z,31.53
2018-04-11T14:43:08.566Z,29.33
2018-04-11T14:46:13.042Z,32.43
2018-04-11T14:49:18.201Z,29.67
2018-04-11T14:52:22.687Z,31.73
2018-04-11T14:55:27.127Z,29.10
2018-04-11T14:58:31.564Z,29.70
2018-04-11T15:01:36.007Z,28.80
2018-04-11T15:04:40.427Z,28.53
2018-04-11T15:07:44.887Z,28.47
2018-04-11T15:10:49.318Z,28.37
2018-04-11T15:13:53.741Z,28.00
2018-04-11T15:16:58.199Z,27.13
2018-04-11T15:20:02.659Z,27.20
2018-04-11T15:23:07.075Z,26.63
2018-04-11T15:26:11.617Z,25.77
2018-04-11T15:29:16.031Z,25.73
2018-04-11T15:32:21.222Z,25.37
2018-04-11T15:35:25.659Z,26.37
2018-04-11T15:38:30.077Z,26.27
2018-04-11T15:41:34.532Z,25.17
2018-04-11T15:44:38.954Z,24.37
2018-04-11T15:47:43.404Z,25.33
2018-04-11T15:50:47.856Z,24.23
2018-04-11T15:53:52.297Z,23.93
2018-04-11T15:56:56.766Z,23.77
2018-04-11T16:00:01.189Z,24.37
2018-04-11T16:03:05.639Z,23.37
2018-04-11T16:06:10.098Z,23.67
2018-04-11T16:09:14.522Z,23.00
2018-04-11T16:12:19.075Z,22.73
2018-04-11T16:15:23.523Z,22.50
2018-04-11T16:18:27.959Z,22.57
2018-04-11T16:21:33.164Z,22.53
2018-04-11T16:24:37.587Z,21.97
2018-04-11T16:27:42.047Z,21.57
2018-04-11T16:30:46.565Z,22.43
2018-04-11T16:33:51.000Z,21.53
2018-04-11T16:36:55.502Z,21.17
2018-04-11T16:39:59.929Z,20.90
2018-04-11T16:43:04.393Z,21.83
2018-04-11T16:46:08.903Z,20.47
2018-04-11T16:49:13.325Z,21.17
2018-04-11T16:52:17.791Z,19.67
2018-04-11T16:55:23.707Z,21.00
2018-04-11T16:58:28.893Z,19.63
2018-04-11T17:01:33.441Z,19.10
2018-04-11T17:04:37.862Z,19.33
2018-04-11T17:07:43.139Z,19.37
2018-04-11T17:10:47.584Z,19.03
2018-04-11T17:13:52.019Z,18.53
2018-04-11T17:16:56.464Z,19.73
2018-04-11T17:20:01.175Z,19.13
2018-04-11T17:23:29.437Z,17.53
2018-04-11T17:30:45.601Z,17.58
2018-04-11T17:33:49.411Z,16.97
2018-04-11T17:36:53.398Z,18.47
2018-04-11T17:39:57.929Z,17.60
2018-04-11T17:43:02.693Z,17.77
2018-04-11T17:46:06.500Z,16.93
2018-04-11T17:49:11.067Z,16.50
2018-04-11T17:52:14.877Z,16.83
2018-04-11T17:55:18.761Z,16.53
2018-04-11T17:58:22.567Z,16.40
2018-04-11T18:01:27.093Z,15.93
2018-04-11T18:04:30.902Z,16.30
2018-04-11T18:07:35.682Z,15.77
2018-04-11T18:10:40.225Z,15.40
2018-04-11T18:13:44.788Z,15.20
2018-04-11T18:16:48.594Z,15.53
2018-04-11T18:19:52.445Z,15.57
2018-04-11T18:22:56.356Z,15.03
2018-04-11T18:26:00.233Z,15.63
2018-04-11T18:29:04.065Z,15.80
2018-04-11T18:32:07.910Z,14.10
2018-04-11T18:35:12.435Z,14.80
2018-04-11T18:38:16.240Z,14.70
2018-04-11T18:41:20.054Z,14.30
2018-04-11T18:44:23.858Z,14.30
2018-04-11T18:47:28.418Z,13.70
2018-04-11T18:50:32.953Z,13.33
2018-04-11T18:53:38.645Z,14.37
2018-04-11T18:56:42.448Z,14.80
2018-04-11T18:59:46.269Z,14.10
2018-04-11T19:02:50.125Z,13.63
2018-04-11T19:05:53.910Z,13.60
2018-04-11T19:08:57.713Z,13.47
2018-04-11T19:12:01.502Z,13.70
2018-04-11T19:15:05.346Z,13.27
2018-04-11T19:18:09.161Z,13.53
2018-04-11T19:21:12.944Z,12.83
2018-04-11T19:24:17.499Z,13.50
2018-04-11T19:27:22.079Z,12.27
2018-04-11T19:30:25.864Z,12.93
2018-04-11T19:33:30.410Z,13.27
2018-04-11T19:36:34.202Z,12.53
2018-04-11T19:39:38.041Z,12.40
2018-04-11T19:42:42.630Z,12.63
2018-04-11T19:45:46.423Z,11.83
2018-04-11T19:48:51.007Z,11.70
2018-04-11T19:51:54.799Z,11.73
2018-04-11T19:54:58.646Z,12.23
2018-04-11T19:58:02.467Z,11.70
2018-04-11T20:01:06.282Z,11.97
2018-04-11T20:04:10.097Z,11.63
2018-04-11T20:07:13.896Z,11.90
2018-04-11T20:10:18.468Z,11.13
2018-04-11T20:13:22.286Z,11.27
2018-04-11T20:16:26.072Z,11.23
2018-04-11T20:19:30.643Z,10.80
2018-04-11T20:22:35.173Z,10.63
2018-04-11T20:25:38.983Z,11.30
2018-04-11T20:28:42.822Z,10.57
2018-04-11T20:31:46.653Z,10.20
2018-04-11T20:34:51.268Z,10.40
2018-04-11T20:37:55.096Z,10.73
2018-04-11T20:40:58.976Z,11.13
2018-04-11T20:44:02.802Z,10.53
2018-04-11T20:47:06.605Z,10.07
2018-04-11T20:50:10.465Z,10.43
2018-04-11T20:53:14.278Z,9.93
2018-04-11T20:56:18.065Z,9.43
2018-04-11T20:59:21.873Z,9.87
2018-04-11T21:02:25.657Z,9.40
2018-04-11T21:05:30.214Z,10.23
2018-04-11T21:08:34.764Z,9.43
2018-04-11T21:11:39.289Z,9.87
2018-04-11T21:14:43.899Z,10.00
2018-04-11T21:17:47.771Z,9.00
2018-04-11T21:20:52.330Z,9.53
2018-04-11T21:23:56.252Z,9.47
2018-04-11T21:27:00.789Z,9.37
2018-04-11T21:30:05.331Z,9.20
2018-04-11T21:33:09.130Z,9.47
2018-04-11T21:36:12.962Z,9.13
2018-04-11T21:39:16.757Z,8.77
2018-04-11T21:42:21.764Z,9.17
2018-04-11T21:45:26.309Z,9.27
2018-04-11T21:48:30.833Z,8.50
2018-04-11T21:51:34.648Z,8.97
2018-04-11T21:54:39.223Z,8.53
2018-04-11T21:57:43.029Z,8.40
2018-04-11T22:00:46.856Z,8.03
2018-04-11T22:03:50.731Z,8.10
2018-04-11T22:06:54.527Z,8.30
2018-04-11T22:09:58.337Z,8.60
2018-04-11T22:13:02.122Z,8.40
2018-04-11T22:16:06.686Z,8.57
2018-04-11T22:19:10.501Z,8.33
2018-04-11T22:22:14.290Z,7.83
2018-04-11T22:25:18.115Z,7.73
2018-04-11T22:28:21.889Z,7.43
2018-04-11T22:31:25.697Z,7.73
2018-04-11T22:34:30.289Z,7.57
2018-04-11T22:37:34.094Z,7.53
2018-04-11T22:40:37.914Z,7.97
2018-04-11T22:43:41.696Z,7.80
2018-04-11T22:46:45.492Z,7.50
2018-04-11T22:49:49.306Z,7.33
2018-04-11T22:52:53.079Z,7.67
2018-04-11T22:55:56.883Z,7.33
2018-04-11T22:59:00.664Z,7.47
2018-04-11T23:02:05.349Z,7.37
2018-04-11T23:05:09.162Z,7.20
2018-04-11T23:08:13.037Z,7.57
2018-04-11T23:11:16.834Z,6.70
2018-04-11T23:14:20.620Z,6.83
2018-04-11T23:17:24.446Z,6.90
2018-04-11T23:20:28.256Z,6.83
2018-04-11T23:23:32.033Z,6.73
2018-04-11T23:26:35.828Z,7.23
2018-04-11T23:29:39.610Z,6.80
2018-04-11T23:32:43.418Z,6.87
2018-04-11T23:35:47.320Z,6.37
2018-04-11T23:38:51.158Z,6.50
2018-04-11T23:41:54.978Z,6.57
2018-04-11T23:44:58.786Z,6.60
2018-04-11T23:48:02.566Z,6.07
2018-04-11T23:51:07.116Z,6.93
2018-04-11T23:54:11.644Z,6.23
2018-04-11T23:57:16.188Z,6.13
